^^
Peaceful Hills Weather Station Historical Data
 
Daily Summary for July 31, 2021 Units:  English    Metric   Both
Daily Weekly Monthly Yearly
  Current: High: Low: Average:
Temperature: 98.3 °F 100.8 °F 72.1 °F 84.2 °F
Dew Point: 74.8 °F 79.1 °F 69.1 °F 73.1 °F
Humidity: 47.4% 91% 38.6% 73%
Wind Speed: 1.6mph 6mph 0mph 1.5mph
Wind Gust: 4mph 14mph - -
WindWSW - - SW
Pressure: 29.93 in 30.04 in 29.93 in -
Precipitation: 0.00 in      
 
 
Tabular Data for July 31, 2021
Time Temperature Dew Point Pressure Wind Wind Speed Wind Gust Humidity Rainfall Rate (Hourly)
00:04 77 °F 71.8 °F 30.01 in Calm     84% 0.00 in
00:09 76.8 °F 71.7 °F 30.01 in Calm     84.4% 0.00 in
00:14 76.8 °F 72 °F 30.01 in Calm     85.2% 0.00 in
00:19 76.8 °F 72.3 °F 30.01 in Calm     86% 0.00 in
00:24 76.7 °F 71.9 °F 30.01 in Calm     85.4% 0.00 in
00:29 76.6 °F 72.1 °F 30.01 in Calm     86% 0.00 in
00:34 76.4 °F 71.9 °F 30.01 in SSE 0.8 mph 2 mph 86% 0.00 in
00:39 76.3 °F 71.8 °F 30.01 in Calm   2 mph 86% 0.00 in
00:44 76.1 °F 71.6 °F 30.01 in Calm   2 mph 86% 0.00 in
00:49 76 °F 71.5 °F 30.01 in Calm     86% 0.00 in
00:54 75.8 °F 71.4 °F 30.01 in Calm     86.4% 0.00 in
00:59 75.7 °F 71.6 °F 30.00 in Calm     87% 0.00 in
01:04 75.7 °F 71.6 °F 30.00 in Calm     87% 0.00 in
01:09 75.6 °F 71.6 °F 30.00 in Calm     87.4% 0.00 in
01:14 75.5 °F 71.7 °F 30.00 in Calm     88% 0.00 in
01:19 75.5 °F 71.7 °F 30.00 in SSE 0.4 mph 2 mph 88% 0.00 in
01:24 75.4 °F 71.6 °F 30.00 in Calm   2 mph 88% 0.00 in
01:29 75.3 °F 71.5 °F 30.00 in Calm     88% 0.00 in
01:34 75.2 °F 71.5 °F 30.00 in Calm     88.2% 0.00 in
01:39 75.1 °F 71.5 °F 30.00 in Calm     88.6% 0.00 in
01:44 75 °F 71.5 °F 30.00 in Calm     89% 0.00 in
01:49 74.9 °F 71.2 °F 30.00 in Calm     88.6% 0.00 in
01:54 74.7 °F 71 °F 30.00 in Calm     88.4% 0.00 in
01:59 74.5 °F 71 °F 30.00 in Calm     89% 0.00 in
02:04 74.4 °F 70.9 °F 30.00 in SSE 0.4 mph 2 mph 89% 0.00 in
02:09 74.3 °F 70.8 °F 30.00 in SSE 0.4 mph 2 mph 89% 0.00 in
02:14 74.3 °F 70.9 °F 30.00 in Calm   2 mph 89.2% 0.00 in
02:19 74.3 °F 71 °F 30.00 in Calm     89.6% 0.00 in
02:24 74.2 °F 71 °F 30.00 in Calm     89.8% 0.00 in
02:29 74.2 °F 71.1 °F 30.00 in Calm     90% 0.00 in
02:34 74.2 °F 71.1 °F 30.01 in Calm     90% 0.00 in
02:39 74.1 °F 71 °F 30.01 in Calm     90% 0.00 in
02:44 74.1 °F 71 °F 30.01 in Calm     90% 0.00 in
02:49 74.1 °F 71 °F 30.01 in Calm     90% 0.00 in
02:54 74.1 °F 71 °F 30.01 in Calm   2 mph 90% 0.00 in
02:59 74 °F 70.9 °F 30.01 in Calm     90% 0.00 in
03:04 74 °F 70.9 °F 30.01 in Calm     90% 0.00 in
03:09 74 °F 70.9 °F 30.01 in Calm     90% 0.00 in
03:14 73.9 °F 70.8 °F 30.01 in Calm     90% 0.00 in
03:19 73.9 °F 70.8 °F 30.01 in Calm     90% 0.00 in
03:24 73.8 °F 70.7 °F 30.01 in Calm     90% 0.00 in
03:29 73.7 °F 70.6 °F 30.01 in Calm     90% 0.00 in
03:34 73.7 °F 70.6 °F 30.01 in Calm     90% 0.00 in
03:39 73.6 °F 70.5 °F 30.01 in Calm     90% 0.00 in
03:44 73.5 °F 70.4 °F 30.01 in Calm     90% 0.00 in
03:49 73.6 °F 70.5 °F 30.01 in Calm     90% 0.00 in
03:54 73.5 °F 70.4 °F 30.01 in Calm     90% 0.00 in
03:59 73.5 °F 70.4 °F 30.02 in Calm     90% 0.00 in
04:04 73.4 °F 70.3 °F 30.01 in Calm     90% 0.00 in
04:09 73.3 °F 70.2 °F 30.02 in Calm     90% 0.00 in
04:14 73.3 °F 70.2 °F 30.02 in Calm     90% 0.00 in
04:19 73.3 °F 70.2 °F 30.01 in Calm     90% 0.00 in
04:24 73.3 °F 70.2 °F 30.01 in Calm     90% 0.00 in
04:29 73.3 °F 70.2 °F 30.01 in Calm     90% 0.00 in
04:34 73.3 °F 70.2 °F 30.01 in Calm     90% 0.00 in
04:39 73.2 °F 70.1 °F 30.01 in Calm     90% 0.00 in
04:44 73.2 °F 70.1 °F 30.01 in Calm   2 mph 90% 0.00 in
04:49 73.1 °F 70 °F 30.00 in Calm     90% 0.00 in
04:54 73.1 °F 70 °F 30.00 in Calm     90% 0.00 in
04:59 73 °F 69.9 °F 30.00 in Calm     90% 0.00 in
05:04 73 °F 69.9 °F 30.00 in Calm     90% 0.00 in
05:09 72.9 °F 69.8 °F 30.00 in Calm     90% 0.00 in
05:14 72.9 °F 69.8 °F 30.00 in Calm     90% 0.00 in
05:19 72.8 °F 69.7 °F 30.00 in Calm     90% 0.00 in
05:24 72.7 °F 69.6 °F 30.01 in Calm     90% 0.00 in
05:29 72.7 °F 69.6 °F 30.01 in Calm     90% 0.00 in
05:34 72.6 °F 69.5 °F 30.01 in Calm     90% 0.00 in
05:39 72.6 °F 69.5 °F 30.01 in Calm     90% 0.00 in
05:44 72.5 °F 69.4 °F 30.01 in Calm     90% 0.00 in
05:49 72.4 °F 69.3 °F 30.01 in Calm     90% 0.00 in
05:54 72.4 °F 69.3 °F 30.01 in Calm     90% 0.00 in
05:59 72.4 °F 69.3 °F 30.01 in Calm     90% 0.00 in
06:04 72.4 °F 69.3 °F 30.01 in Calm     90% 0.00 in
06:09 72.4 °F 69.3 °F 30.01 in Calm   2 mph 90% 0.00 in
06:14 72.4 °F 69.3 °F 30.01 in Calm     90% 0.00 in
06:19 72.3 °F 69.2 °F 30.01 in Calm     90% 0.00 in
06:24 72.3 °F 69.2 °F 30.01 in Calm     90% 0.00 in
06:29 72.3 °F 69.2 °F 30.02 in Calm     90% 0.00 in
06:34 72.2 °F 69.1 °F 30.02 in Calm     90% 0.00 in
06:39 72.2 °F 69.2 °F 30.02 in Calm     90.2% 0.00 in
06:44 72.1 °F 69.3 °F 30.02 in Calm     90.8% 0.00 in
06:49 72.2 °F 69.4 °F 30.02 in Calm     91% 0.00 in
06:54 72.2 °F 69.4 °F 30.02 in Calm     90.8% 0.00 in
06:59 72.4 °F 69.3 °F 30.02 in Calm     90% 0.00 in
07:04 72.4 °F 69.3 °F 30.03 in Calm     90% 0.00 in
07:09 72.5 °F 69.4 °F 30.03 in Calm     90% 0.00 in
07:14 72.5 °F 69.4 °F 30.03 in Calm     90% 0.00 in
07:19 72.6 °F 69.7 °F 30.03 in Calm     90.6% 0.00 in
07:24 72.7 °F 69.9 °F 30.03 in Calm     91% 0.00 in
07:29 72.8 °F 70 °F 30.03 in Calm     91% 0.00 in
07:34 72.9 °F 70.1 °F 30.03 in NW 0.4 mph 2 mph 91% 0.00 in
07:39 73.1 °F 70.3 °F 30.03 in Calm   2 mph 91% 0.00 in
07:44 73.2 °F 70.4 °F 30.03 in Calm     91% 0.00 in
07:49 73.3 °F 70.5 °F 30.03 in Calm     91% 0.00 in
07:54 73.6 °F 70.8 °F 30.04 in Calm     91% 0.00 in
07:59 73.7 °F 70.9 °F 30.03 in Calm     91% 0.00 in
08:04 73.9 °F 71.1 °F 30.03 in Calm   2 mph 90.8% 0.00 in
08:09 74.5 °F 71.7 °F 30.04 in NW 0.4 mph 2 mph 91% 0.00 in
08:14 74.9 °F 72.1 °F 30.04 in NW 0.8 mph 2 mph 91% 0.00 in
08:19 75.1 °F 72.1 °F 30.04 in NW 0.8 mph 2 mph 90.4% 0.00 in
08:24 75.7 °F 72.6 °F 30.04 in NW 1.6 mph 4 mph 90% 0.00 in
08:29 76.3 °F 73.1 °F 30.04 in NW 1.2 mph 4 mph 90% 0.00 in
08:34 76.8 °F 73.6 °F 30.04 in NW 1.6 mph 4 mph 90% 0.00 in
08:39 77.3 °F 73.9 °F 30.04 in NW 1.6 mph 4 mph 89.2% 0.00 in
08:44 77.8 °F 74.1 °F 30.03 in NW 1.2 mph 4 mph 88.4% 0.00 in
08:49 78.4 °F 74.3 °F 30.04 in NW 2 mph 4 mph 87.2% 0.00 in
08:54 78.8 °F 74.6 °F 30.03 in NW 0.4 mph 4 mph 87% 0.00 in
08:59 79.4 °F 75.2 °F 30.03 in WSW 2 mph 4 mph 86.8% 0.00 in
09:04 80.1 °F 75.2 °F 30.03 in SW 2.8 mph 5 mph 85% 0.00 in
09:09 80.6 °F 75.5 °F 30.03 in SW 1.2 mph 4 mph 84.6% 0.00 in
09:14 81.1 °F 75.8 °F 30.03 in SW 2 mph 5 mph 84% 0.00 in
09:19 81.7 °F 76 °F 30.03 in SW 2.8 mph 5 mph 83% 0.00 in
09:24 82.1 °F 76.2 °F 30.03 in WSW 2 mph 4 mph 82.4% 0.00 in
09:29 82.5 °F 76.6 °F 30.03 in West 2 mph 4 mph 82.4% 0.00 in
09:34 83.1 °F 76.7 °F 30.03 in West 1.6 mph 4 mph 81.2% 0.00 in
09:39 83.6 °F 77 °F 30.03 in West 2 mph 5 mph 80.6% 0.00 in
09:44 84.2 °F 77.6 °F 30.02 in West 1.6 mph 4 mph 80.6% 0.00 in
09:49 85.1 °F 78 °F 30.02 in West 2 mph 5 mph 79.4% 0.00 in
09:54 85.8 °F 77.9 °F 30.02 in West 2.4 mph 4 mph 77.4% 0.00 in
09:59 86.1 °F 77.9 °F 30.02 in West 0.4 mph 4 mph 76.8% 0.00 in
10:04 86.4 °F 77.6 °F 30.02 in SSW 2.8 mph 7 mph 75.2% 0.00 in
10:09 86.8 °F 77.2 °F 30.02 in SW 2 mph 7 mph 73.2% 0.00 in
10:14 87.2 °F 77.8 °F 30.02 in West 2.8 mph 5 mph 73.8% 0.00 in
10:19 87.8 °F 77.7 °F 30.02 in SW 3.6 mph 5 mph 72.2% 0.00 in
10:24 88.4 °F 78.7 °F 30.03 in SW 1.2 mph 5 mph 73% 0.00 in
10:29 88.9 °F 78.9 °F 30.03 in SSW 2.8 mph 7 mph 72.6% 0.00 in
10:34 89.4 °F 78.3 °F 30.03 in SSW 3.6 mph 7 mph 70% 0.00 in
10:39 90 °F 78.7 °F 30.03 in South 2.6 mph 9 mph 69.6% 0.00 in
10:44 90.5 °F 78.6 °F 30.03 in SSW 3 mph 7 mph 68.2% 0.00 in
10:49 90.9 °F 78.9 °F 30.03 in SSW 2.2 mph 5 mph 68% 0.00 in
10:54 91.1 °F 78.2 °F 30.03 in West 4 mph 7 mph 66.2% 0.00 in
10:59 91.1 °F 78.2 °F 30.02 in SSW 3.2 mph 7 mph 66.2% 0.00 in
11:04 91.4 °F 79.1 °F 30.02 in SW 2.8 mph 5 mph 67.4% 0.00 in
11:09 91.9 °F 78.6 °F 30.02 in WSW 2.8 mph 5 mph 65.2% 0.00 in
11:14 92.2 °F 78.1 °F 30.02 in West 3 mph 5 mph 63.6% 0.00 in
11:19 92.2 °F 78.5 °F 30.02 in West 3.6 mph 5 mph 64.4% 0.00 in
11:24 92.2 °F 77.8 °F 30.02 in WNW 3.2 mph 7 mph 63% 0.00 in
11:29 92.5 °F 77.7 °F 30.02 in SSW 2.2 mph 7 mph 62.2% 0.00 in
11:34 93 °F 77.7 °F 30.02 in SW 3 mph 7 mph 61.2% 0.00 in
11:39 93.5 °F 78.6 °F 30.02 in West 3.8 mph 7 mph 62.2% 0.00 in
11:44 94 °F 77.7 °F 30.02 in SW 3.2 mph 9 mph 59.4% 0.00 in
11:49 94.2 °F 77.5 °F 30.02 in South 2 mph 9 mph 58.6% 0.00 in
11:54 94.6 °F 78.3 °F 30.02 in SSW 2.8 mph 5 mph 59.4% 0.00 in
11:59 95.2 °F 77.9 °F 30.02 in SSW 3.2 mph 5 mph 57.6% 0.00 in
12:04 95.8 °F 77 °F 30.02 in SW 3 mph 9 mph 54.8% 0.00 in
12:09 95.8 °F 78.1 °F 30.01 in NW 2.4 mph 5 mph 57% 0.00 in
12:14 95.8 °F 77.6 °F 30.01 in SSW 2.4 mph 5 mph 56% 0.00 in
12:19 96.4 °F 77.7 °F 30.01 in SW 2.8 mph 7 mph 55.2% 0.00 in
12:24 96.2 °F 76.4 °F 30.01 in SSW 4.4 mph 9 mph 53.2% 0.00 in
12:29 96.1 °F 76.5 °F 30.01 in WNW 3.8 mph 7 mph 53.6% 0.00 in
12:34 96 °F 75.6 °F 30.01 in West 2.8 mph 7 mph 52% 0.00 in
12:39 95.9 °F 75.5 °F 30.01 in WNW 3.2 mph 7 mph 52.2% 0.00 in
12:44 96.1 °F 75.3 °F 30.01 in SSE 3.4 mph 7 mph 51.4% 0.00 in
12:49 96.9 °F 75.9 °F 30.01 in SSW 3.8 mph 7 mph 51.2% 0.00 in
12:54 96.9 °F 76.2 °F 30.01 in WSW 4.8 mph 7 mph 51.6% 0.00 in
12:59 97.1 °F 75.3 °F 30.00 in SSE 4.4 mph 9 mph 50% 0.00 in
13:04 97.4 °F 75.9 °F 30.00 in South 5.4 mph 10 mph 50.4% 0.00 in
13:09 97.6 °F 76.2 °F 30.00 in SSW 3.4 mph 10 mph 50.6% 0.00 in
13:14 97.7 °F 75.7 °F 30.00 in SW 2.8 mph 7 mph 49.8% 0.00 in
13:19 97.8 °F 75.7 °F 29.99 in West 3 mph 5 mph 49.6% 0.00 in
13:24 97.2 °F 76.2 °F 29.99 in WNW 4.2 mph 7 mph 51.2% 0.00 in
13:29 96.6 °F 76.3 °F 29.99 in WNW 4.8 mph 7 mph 52.4% 0.00 in
13:34 96.2 °F 76.1 °F 29.99 in WNW 3 mph 7 mph 52.6% 0.00 in
13:39 96.4 °F 76.4 °F 29.99 in North 1.2 mph 5 mph 52.8% 0.00 in
13:44 97.1 °F 76.3 °F 29.99 in SW 3.2 mph 7 mph 51.6% 0.00 in
13:49 97.8 °F 75.8 °F 29.98 in SSW 4 mph 10 mph 49.6% 0.00 in
13:54 98.3 °F 74.9 °F 29.98 in SSW 4.2 mph 10 mph 47.4% 0.00 in
13:59 98.3 °F 75.7 °F 29.98 in WSW 3 mph 7 mph 48.8% 0.00 in
14:04 98.4 °F 75 °F 29.98 in South 4.2 mph 7 mph 47.6% 0.00 in
14:09 98.4 °F 74.2 °F 29.98 in ESE 6 mph 12 mph 46.2% 0.00 in
14:14 98.5 °F 74.8 °F 29.99 in South 3.8 mph 10 mph 47% 0.00 in
14:19 99 °F 76.1 °F 29.98 in SSW 2.8 mph 5 mph 48.4% 0.00 in
14:24 99 °F 75.1 °F 29.98 in SW 3.7 mph 7 mph 46.7% 0.00 in
14:29 98.7 °F 73.6 °F 29.98 in SE 3.4 mph 7 mph 44.8% 0.00 in
14:34 99 °F 74.3 °F 29.98 in East 3 mph 7 mph 45.6% 0.00 in
14:39 99.6 °F 73.8 °F 29.98 in South 3.6 mph 9 mph 44% 0.00 in
14:44 99.7 °F 72.8 °F 29.98 in SSW 3.2 mph 9 mph 42.4% 0.00 in
14:49 99.7 °F 73.7 °F 29.98 in SSW 2 mph 5 mph 43.8% 0.00 in
14:54 99.8 °F 73.9 °F 29.98 in SW 2.8 mph 5 mph 43.8% 0.00 in
14:59 100 °F 73.5 °F 29.97 in SW 2.4 mph 7 mph 43% 0.00 in
15:04 100.4 °F 72.7 °F 29.97 in South 3.6 mph 7 mph 41.4% 0.00 in
15:09 100.8 °F 71.4 °F 29.97 in SSW 2.8 mph 7 mph 39.2% 0.00 in
15:14 100.7 °F 71 °F 29.97 in South 4.4 mph 9 mph 38.8% 0.00 in
15:19 100.7 °F 71 °F 29.97 in SE 4.6 mph 7 mph 38.8% 0.00 in
15:24 100.6 °F 70.8 °F 29.97 in SE 2.8 mph 9 mph 38.6% 0.00 in
15:29 100.7 °F 72.6 °F 29.97 in West 2.8 mph 7 mph 40.8% 0.00 in
15:34 100.7 °F 73 °F 29.96 in West 3.6 mph 5 mph 41.4% 0.00 in
15:39 100.4 °F 71.5 °F 29.96 in West 3 mph 5 mph 39.8% 0.00 in
15:44 99.9 °F 71.4 °F 29.96 in WSW 2.4 mph 7 mph 40.2% 0.00 in
15:49 99.7 °F 71.5 °F 29.96 in SSE 2.6 mph 7 mph 40.6% 0.00 in
15:54 100 °F 71.7 °F 29.96 in SW 3.8 mph 7 mph 40.4% 0.00 in
15:59 100.3 °F 71.9 °F 29.96 in SSW 2.4 mph 5 mph 40.4% 0.00 in
16:04 100.4 °F 72 °F 29.96 in SW 2 mph 7 mph 40.4% 0.00 in
16:09 100.3 °F 72.5 °F 29.95 in SSW 2.4 mph 5 mph 41.2% 0.00 in
16:14 100 °F 73.1 °F 29.95 in WNW 3.2 mph 5 mph 42.4% 0.00 in
16:19 99.5 °F 72.9 °F 29.95 in WSW 2.6 mph 9 mph 42.8% 0.00 in
16:24 99.5 °F 72.3 °F 29.95 in SSW 3.8 mph 10 mph 42% 0.00 in
16:29 99.7 °F 73 °F 29.94 in SSW 3.6 mph 9 mph 42.6% 0.00 in
16:34 99.5 °F 73.5 °F 29.94 in SW 5.2 mph 14 mph 43.6% 0.00 in
16:39 99.4 °F 74.4 °F 29.94 in West 2.8 mph 7 mph 45.2% 0.00 in
16:44 98.9 °F 74.8 °F 29.94 in WSW 2 mph 9 mph 46.4% 0.00 in
16:49 98.5 °F 74.4 °F 29.94 in SW 2 mph 5 mph 46.4% 0.00 in
16:54 98.8 °F 74 °F 29.93 in SW 1.6 mph 5 mph 45.4% 0.00 in
16:59 99.1 °F 74.5 °F 29.93 in SSW 2.8 mph 7 mph 45.8% 0.00 in
17:04 99 °F 74.2 °F 29.93 in South 3.4 mph 7 mph 45.4% 0.00 in
17:09 98.6 °F 74.8 °F 29.93 in South 0.8 mph 5 mph 46.8% 0.00 in
17:14 98.3 °F 75.2 °F 29.93 in WSW 1.6 mph 5 mph 48% 0.00 in
17:19 98.1 °F 74.7 °F 29.93 in WSW 1.6 mph 4 mph 47.4% 0.00 in
17:24 98.2 °F 74.6 °F 29.93 in WSW 1.6 mph 4 mph 47.2% 0.00 in
17:29 98.3 °F 74.8 °F 29.93 in WSW 1.6 mph 4 mph 47.4% 0.00 in
Compliments of Weather Underground - 4 mb